createdAt,value
2019-05-02T00:02:00.133Z,10.20
2019-05-02T00:04:28.496Z,10.20
2019-05-02T00:07:04.047Z,10.20
2019-05-02T00:09:33.557Z,10.20
2019-05-02T00:12:02.101Z,10.10
2019-05-02T00:14:31.081Z,10.10
2019-05-02T00:16:59.718Z,10.10
2019-05-02T00:19:28.023Z,10.10
2019-05-02T00:21:57.309Z,10.20
2019-05-02T00:24:25.665Z,10.20
2019-05-02T00:26:56.116Z,10.10
2019-05-02T00:29:25.059Z,10.20
2019-05-02T00:31:53.520Z,10.10
2019-05-02T00:34:21.852Z,10.20
2019-05-02T00:36:50.169Z,10.20
2019-05-02T00:39:18.435Z,10.20
2019-05-02T00:41:46.929Z,10.20
2019-05-02T00:44:15.260Z,10.20
2019-05-02T00:46:44.005Z,10.20
2019-05-02T00:49:12.262Z,10.10
2019-05-02T00:51:40.516Z,10.10
2019-05-02T00:54:08.795Z,10.20
2019-05-02T00:56:40.194Z,10.20
2019-05-02T00:59:08.617Z,10.20
2019-05-02T01:01:44.730Z,10.10
2019-05-02T01:04:14.678Z,10.10
2019-05-02T01:06:44.702Z,10.10
2019-05-02T01:09:13.431Z,10.10
2019-05-02T01:11:41.700Z,10.10
2019-05-02T01:14:10.036Z,10.10
2019-05-02T01:16:38.393Z,10.10
2019-05-02T01:19:06.676Z,10.10
2019-05-02T01:21:38.821Z,10.10
2019-05-02T01:24:05.003Z,10.10
2019-05-02T01:26:38.140Z,10.00
2019-05-02T01:29:17.278Z,10.10
2019-05-02T01:31:49.888Z,10.10
2019-05-02T01:34:35.122Z,10.10
2019-05-02T01:37:05.042Z,10.10
2019-05-02T01:39:33.493Z,10.10
2019-05-02T01:42:04.123Z,10.00
2019-05-02T01:44:36.309Z,10.00
2019-05-02T01:47:03.020Z,10.00
2019-05-02T01:49:51.932Z,10.00
2019-05-02T01:52:23.799Z,10.00
2019-05-02T01:54:50.936Z,10.00
2019-05-02T01:57:19.418Z,10.00
2019-05-02T01:59:47.789Z,10.00
2019-05-02T02:02:16.112Z,10.10
2019-05-02T02:04:44.363Z,10.00
2019-05-02T02:07:14.973Z,10.10
2019-05-02T02:09:44.479Z,10.10
2019-05-02T02:12:13.678Z,10.10
2019-05-02T02:14:41.964Z,10.10
2019-05-02T02:17:15.327Z,10.10
2019-05-02T02:19:42.084Z,10.10
2019-05-02T02:22:12.027Z,10.20
2019-05-02T02:24:50.720Z,10.20
2019-05-02T02:27:19.985Z,10.20
2019-05-02T02:29:49.038Z,10.20
2019-05-02T02:32:19.978Z,10.20
2019-05-02T02:34:47.632Z,10.20
2019-05-02T02:37:15.926Z,10.20
2019-05-02T02:39:48.375Z,10.20
2019-05-02T02:42:14.265Z,10.20
2019-05-02T02:44:44.187Z,10.20
2019-05-02T02:47:18.842Z,10.20
2019-05-02T02:49:42.649Z,10.10
2019-05-02T02:52:11.389Z,10.10
2019-05-02T02:54:43.360Z,10.10
2019-05-02T02:57:21.888Z,10.20
2019-05-02T02:59:39.633Z,10.20
2019-05-02T03:02:10.086Z,10.20
2019-05-02T03:04:43.947Z,10.20
2019-05-02T03:07:09.109Z,10.20
2019-05-02T03:09:37.464Z,10.20
2019-05-02T03:12:22.095Z,10.20
2019-05-02T03:14:54.716Z,10.20
2019-05-02T03:17:26.688Z,10.20
2019-05-02T03:19:54.235Z,10.20
2019-05-02T03:22:23.103Z,10.20
2019-05-02T03:24:51.347Z,10.20
2019-05-02T03:27:19.623Z,10.20
2019-05-02T03:29:47.877Z,10.10
2019-05-02T03:32:31.845Z,10.20
2019-05-02T03:34:51.875Z,10.20
2019-05-02T03:37:16.237Z,10.20
2019-05-02T03:39:49.452Z,10.20
2019-05-02T03:42:14.541Z,10.20
2019-05-02T03:44:49.466Z,10.20
2019-05-02T03:47:12.913Z,10.20
2019-05-02T03:49:48.792Z,10.20
2019-05-02T03:52:11.169Z,10.30
2019-05-02T03:54:48.491Z,10.30
2019-05-02T03:57:09.504Z,10.20
2019-05-02T03:59:39.680Z,10.30
2019-05-02T04:02:14.172Z,10.30
2019-05-02T04:04:37.947Z,10.30
2019-05-02T04:07:06.287Z,10.30
2019-05-02T04:09:39.110Z,10.30
2019-05-02T04:12:05.306Z,10.30
2019-05-02T04:14:38.175Z,10.30
2019-05-02T04:17:03.630Z,10.30
2019-05-02T04:19:34.756Z,10.30
2019-05-02T04:22:08.394Z,10.30
2019-05-02T04:24:32.362Z,10.30
2019-05-02T04:27:00.644Z,10.30
2019-05-02T04:29:31.201Z,10.30
2019-05-02T04:32:04.324Z,10.30
2019-05-02T04:34:28.988Z,10.30
2019-05-02T04:37:01.058Z,10.30
2019-05-02T04:39:28.621Z,10.30
2019-05-02T04:41:58.687Z,10.40
2019-05-02T04:44:32.271Z,10.40
2019-05-02T04:46:59.780Z,10.40
2019-05-02T04:49:29.839Z,10.40
2019-05-02T04:52:04.634Z,10.30
2019-05-02T04:54:31.888Z,10.40
2019-05-02T04:57:01.826Z,10.40
2019-05-02T04:59:28.486Z,10.40
2019-05-02T05:02:00.648Z,10.30
2019-05-02T05:04:27.684Z,10.40
2019-05-02T05:07:00.918Z,10.40
2019-05-02T05:09:27.898Z,10.40
2019-05-02T05:11:58.999Z,10.40
2019-05-02T05:14:32.255Z,10.40
2019-05-02T05:16:57.990Z,10.40
2019-05-02T05:19:30.921Z,10.40
2019-05-02T05:22:04.552Z,10.40
2019-05-02T05:24:38.518Z,10.40
2019-05-02T05:27:08.228Z,10.50
2019-05-02T05:29:37.455Z,10.40
2019-05-02T05:32:09.941Z,10.40
2019-05-02T05:34:37.842Z,10.50
2019-05-02T05:37:11.638Z,10.50
2019-05-02T05:39:37.983Z,10.50
2019-05-02T05:42:05.716Z,10.50
2019-05-02T05:44:33.975Z,10.50
2019-05-02T05:47:02.285Z,10.50
2019-05-02T05:49:30.598Z,10.50
2019-05-02T05:52:00.656Z,10.50
2019-05-02T05:54:33.053Z,10.50
2019-05-02T05:56:58.827Z,10.50
2019-05-02T05:59:31.824Z,10.60
2019-05-02T06:01:57.988Z,10.60
2019-05-02T06:04:32.712Z,10.60
2019-05-02T06:06:59.572Z,10.70
2019-05-02T06:09:30.945Z,10.70
2019-05-02T06:11:56.688Z,10.70
2019-05-02T06:14:26.254Z,10.70
2019-05-02T06:16:54.996Z,10.70
2019-05-02T06:19:23.205Z,10.70
2019-05-02T06:21:51.442Z,10.70
2019-05-02T06:24:19.696Z,10.60
2019-05-02T06:26:49.821Z,10.70
2019-05-02T06:29:20.613Z,10.60
2019-05-02T06:31:49.357Z,10.60
2019-05-02T06:34:17.652Z,10.70
2019-05-02T06:36:46.035Z,10.70
2019-05-02T06:39:14.360Z,10.60
2019-05-02T06:41:42.768Z,10.60
2019-05-02T06:44:11.190Z,10.70
2019-05-02T06:46:39.528Z,10.70
2019-05-02T06:49:07.775Z,10.70
2019-05-02T06:51:36.033Z,10.70
2019-05-02T06:54:04.275Z,10.70
2019-05-02T06:56:32.505Z,10.70
2019-05-02T06:59:02.397Z,10.70
2019-05-02T07:01:30.929Z,10.70
2019-05-02T07:03:59.161Z,10.70
2019-05-02T07:06:27.626Z,10.70
2019-05-02T07:08:59.322Z,10.70
2019-05-02T07:11:26.461Z,10.70
2019-05-02T07:13:54.684Z,10.70
2019-05-02T07:16:37.633Z,10.70
2019-05-02T07:19:01.745Z,10.70
2019-05-02T07:21:29.992Z,10.70
2019-05-02T07:23:58.278Z,10.70
2019-05-02T07:26:26.675Z,10.80
2019-05-02T07:28:54.947Z,10.80
2019-05-02T07:31:23.182Z,10.80
2019-05-02T07:33:51.473Z,10.80
2019-05-02T07:36:19.736Z,10.80
2019-05-02T07:38:47.979Z,10.80
2019-05-02T07:41:16.223Z,10.80
2019-05-02T07:43:44.451Z,10.80
2019-05-02T07:46:16.170Z,10.80
2019-05-02T07:48:43.689Z,10.80
2019-05-02T07:51:12.147Z,10.80
2019-05-02T07:53:44.613Z,10.80
2019-05-02T07:56:12.523Z,10.80
2019-05-02T07:58:46.937Z,10.80
2019-05-02T08:01:13.537Z,10.80
2019-05-02T08:03:40.716Z,10.80
2019-05-02T08:06:09.011Z,10.90
2019-05-02T08:08:37.249Z,10.80
2019-05-02T08:11:05.523Z,10.80
2019-05-02T08:13:33.802Z,10.80
2019-05-02T08:16:02.023Z,10.80
2019-05-02T08:18:31.605Z,10.80
2019-05-02T08:21:00.179Z,10.80
2019-05-02T08:23:28.406Z,10.80
2019-05-02T08:25:56.760Z,10.80
2019-05-02T08:28:26.746Z,10.80
2019-05-02T08:30:56.617Z,10.80
2019-05-02T08:33:29.133Z,10.90
2019-05-02T08:35:55.239Z,10.80
2019-05-02T08:38:23.480Z,10.80
2019-05-02T08:40:51.779Z,10.80
2019-05-02T08:43:20.562Z,10.80
2019-05-02T08:45:48.813Z,10.80
2019-05-02T08:48:17.088Z,10.80
2019-05-02T08:50:45.341Z,10.80
2019-05-02T08:53:14.356Z,10.80
2019-05-02T08:55:45.329Z,10.80
2019-05-02T08:58:14.617Z,10.80
2019-05-02T09:00:43.696Z,10.80
2019-05-02T09:03:11.926Z,10.80
2019-05-02T09:05:45.449Z,10.80
2019-05-02T09:08:14.331Z,10.80
2019-05-02T09:10:42.236Z,10.80
2019-05-02T09:13:10.341Z,10.80
2019-05-02T09:15:40.485Z,10.80
2019-05-02T09:18:08.607Z,10.80
2019-05-02T09:20:36.972Z,10.90
2019-05-02T09:23:05.220Z,10.90
2019-05-02T09:25:33.593Z,10.80
2019-05-02T09:28:01.972Z,10.80
2019-05-02T09:30:30.246Z,10.90
2019-05-02T09:33:04.858Z,10.80
2019-05-02T09:35:28.464Z,10.80
2019-05-02T09:37:56.688Z,10.80
2019-05-02T09:40:25.091Z,10.80
2019-05-02T09:43:00.050Z,10.80
2019-05-02T09:45:27.815Z,10.80
2019-05-02T09:48:04.105Z,10.80
2019-05-02T09:50:29.411Z,10.80
2019-05-02T09:52:54.979Z,10.80
2019-05-02T09:55:50.072Z,10.80
2019-05-02T09:58:19.491Z,10.80
2019-05-02T10:00:46.001Z,10.90
2019-05-02T10:03:14.499Z,10.90
2019-05-02T10:05:43.186Z,10.80
2019-05-02T10:08:13.867Z,10.90
2019-05-02T10:10:45.762Z,10.90
2019-05-02T10:13:12.332Z,10.90
2019-05-02T10:15:42.113Z,10.90
2019-05-02T10:18:14.114Z,10.90
2019-05-02T10:20:41.934Z,10.90
2019-05-02T10:23:11.993Z,10.90
2019-05-02T10:25:46.123Z,10.90
2019-05-02T10:28:12.791Z,11.00
2019-05-02T10:30:42.451Z,11.00
2019-05-02T10:33:12.174Z,10.90
2019-05-02T10:35:43.384Z,11.00
2019-05-02T10:38:18.006Z,11.00
2019-05-02T10:40:42.433Z,11.00
2019-05-02T10:43:11.795Z,11.00
2019-05-02T10:45:42.511Z,11.00
2019-05-02T10:48:22.803Z,11.00
2019-05-02T10:50:48.612Z,11.00
2019-05-02T10:53:16.959Z,11.10
2019-05-02T10:55:45.891Z,11.00
2019-05-02T10:58:15.063Z,11.10
2019-05-02T11:00:45.385Z,11.10
2019-05-02T11:03:15.063Z,11.10
2019-05-02T11:05:58.023Z,11.10
2019-05-02T11:08:27.216Z,11.10
2019-05-02T11:10:55.445Z,11.20
2019-05-02T11:13:42.500Z,11.10
2019-05-02T11:16:28.807Z,11.10
2019-05-02T11:19:02.484Z,11.10
2019-05-02T11:21:32.190Z,11.20
2019-05-02T11:24:02.492Z,11.20
2019-05-02T11:26:32.506Z,11.20
2019-05-02T11:29:02.764Z,11.20
2019-05-02T11:31:32.437Z,11.20
2019-05-02T11:34:01.790Z,11.30
2019-05-02T11:36:32.564Z,11.30
2019-05-02T11:39:09.763Z,11.30
2019-05-02T11:41:31.760Z,11.30
2019-05-02T11:44:00.307Z,11.30
2019-05-02T11:46:28.646Z,11.30
2019-05-02T11:48:58.701Z,11.30
2019-05-02T11:51:27.169Z,11.30
2019-05-02T11:53:59.234Z,11.30
2019-05-02T11:56:25.400Z,11.30
2019-05-02T11:58:53.655Z,11.30
2019-05-02T12:01:34.556Z,11.40
2019-05-02T12:03:52.754Z,11.30
2019-05-02T12:06:22.581Z,11.30
2019-05-02T12:08:52.504Z,11.30
2019-05-02T12:11:22.862Z,11.40
2019-05-02T12:13:54.814Z,11.40
2019-05-02T12:16:23.009Z,11.40
2019-05-02T12:18:53.568Z,11.50
2019-05-02T12:21:22.862Z,11.50
2019-05-02T12:23:52.664Z,11.50
2019-05-02T12:26:22.088Z,11.50
2019-05-02T12:28:52.445Z,11.50
2019-05-02T12:31:28.932Z,11.50
2019-05-02T12:33:57.852Z,11.50
2019-05-02T12:36:26.068Z,11.60
2019-05-02T12:38:55.304Z,11.60
2019-05-02T12:41:25.263Z,11.60
2019-05-02T12:43:53.592Z,11.70
2019-05-02T12:46:22.319Z,11.70
2019-05-02T12:48:51.982Z,11.70
2019-05-02T12:51:22.340Z,11.70
2019-05-02T12:53:52.684Z,11.70
2019-05-02T12:56:22.700Z,11.70
2019-05-02T12:58:52.929Z,11.70
2019-05-02T13:01:22.478Z,11.70
2019-05-02T13:03:52.391Z,11.70
2019-05-02T13:06:21.961Z,11.80
2019-05-02T13:08:52.378Z,11.80
2019-05-02T13:11:26.628Z,11.80
2019-05-02T13:13:54.884Z,11.80
2019-05-02T13:16:23.180Z,11.80
2019-05-02T13:18:51.972Z,11.80
2019-05-02T13:21:24.866Z,11.90
2019-05-02T13:23:54.733Z,11.90
2019-05-02T13:26:26.905Z,11.90
2019-05-02T13:28:52.940Z,11.90
2019-05-02T13:31:22.824Z,11.90
2019-05-02T13:33:52.688Z,11.90
2019-05-02T13:36:58.013Z,11.90
2019-05-02T13:39:33.087Z,12.00
2019-05-02T13:42:01.790Z,12.00
2019-05-02T13:44:43.676Z,12.00
2019-05-02T13:47:13.712Z,12.00
2019-05-02T13:49:53.658Z,12.00
2019-05-02T13:52:12.415Z,12.00
2019-05-02T13:54:42.537Z,12.00
2019-05-02T13:57:12.129Z,12.00
2019-05-02T13:59:41.646Z,12.00
2019-05-02T14:02:31.638Z,12.10
2019-05-02T14:05:02.101Z,12.00
2019-05-02T14:07:32.194Z,12.10
2019-05-02T14:10:02.479Z,12.10
2019-05-02T14:12:47.757Z,12.10
2019-05-02T14:15:17.433Z,12.20
2019-05-02T14:17:45.663Z,12.20
2019-05-02T14:20:13.980Z,12.20
2019-05-02T14:22:42.540Z,12.20
2019-05-02T14:25:12.266Z,12.20
2019-05-02T14:27:42.169Z,12.20
2019-05-02T14:30:12.107Z,12.30
2019-05-02T14:32:42.442Z,12.30
2019-05-02T14:35:28.262Z,12.30
2019-05-02T14:38:13.646Z,12.30
2019-05-02T14:40:45.167Z,12.40
2019-05-02T14:43:15.025Z,12.40
2019-05-02T14:46:03.263Z,12.40
2019-05-02T14:48:41.760Z,12.40
2019-05-02T14:51:07.629Z,12.50
2019-05-02T14:53:35.893Z,12.50
2019-05-02T14:56:12.508Z,12.50
2019-05-02T14:58:42.736Z,12.50
2019-05-02T15:01:16.882Z,12.60
2019-05-02T15:03:42.313Z,12.60
2019-05-02T15:06:11.734Z,12.60
2019-05-02T15:08:42.032Z,12.60
2019-05-02T15:11:12.415Z,12.60
2019-05-02T15:13:43.107Z,12.60
2019-05-02T15:16:17.666Z,12.70
2019-05-02T15:18:41.983Z,12.70
2019-05-02T15:21:16.220Z,12.70
2019-05-02T15:23:42.336Z,12.80
2019-05-02T15:26:13.692Z,12.80
2019-05-02T15:28:42.214Z,12.80
2019-05-02T15:31:27.907Z,12.80
2019-05-02T15:34:05.092Z,12.80
2019-05-02T15:36:32.377Z,12.80
2019-05-02T15:41:32.618Z,12.80
2019-05-02T15:44:01.966Z,12.80
2019-05-02T15:46:31.926Z,12.80
2019-05-02T15:49:01.937Z,12.80
2019-05-02T15:51:30.458Z,12.90
2019-05-02T15:54:08.813Z,12.90
2019-05-02T15:57:00.626Z,12.90
2019-05-02T15:59:37.724Z,12.90
2019-05-02T16:02:05.393Z,12.90
2019-05-02T16:04:35.296Z,12.90
2019-05-02T16:07:06.987Z,12.90
2019-05-02T16:09:33.500Z,12.90
2019-05-02T16:12:03.141Z,12.90
2019-05-02T16:14:34.100Z,12.90
2019-05-02T16:17:03.764Z,12.80
2019-05-02T16:19:33.300Z,12.70
2019-05-02T16:22:22.601Z,12.60
2019-05-02T16:24:53.228Z,12.60
2019-05-02T16:27:25.443Z,12.50
2019-05-02T16:29:52.784Z,12.40
2019-05-02T16:32:25.368Z,12.40
2019-05-02T16:34:55.170Z,12.30
2019-05-02T16:37:23.549Z,12.30
2019-05-02T16:39:51.816Z,12.30
2019-05-02T16:42:20.048Z,12.20
2019-05-02T16:44:48.289Z,12.10
2019-05-02T16:47:16.568Z,12.00
2019-05-02T16:49:47.954Z,12.00
2019-05-02T16:52:16.201Z,11.90
2019-05-02T16:54:44.476Z,11.90
2019-05-02T16:57:17.247Z,11.80
2019-05-02T16:59:42.799Z,11.80
2019-05-02T17:02:12.180Z,11.70
2019-05-02T17:04:42.521Z,11.70
2019-05-02T17:07:12.427Z,11.60
2019-05-02T17:09:48.269Z,11.60
2019-05-02T17:12:16.615Z,11.50
2019-05-02T17:14:51.614Z,11.50
2019-05-02T17:17:17.158Z,11.40
2019-05-02T17:19:45.391Z,11.40
2019-05-02T17:22:16.682Z,11.40
2019-05-02T17:24:43.624Z,11.40
2019-05-02T17:27:12.938Z,11.30
2019-05-02T17:29:43.268Z,11.30
2019-05-02T17:32:11.849Z,11.30
2019-05-02T17:34:42.060Z,11.20
2019-05-02T17:37:13.502Z,11.20
2019-05-02T17:39:42.695Z,11.20
2019-05-02T17:42:12.289Z,11.30
2019-05-02T17:44:41.655Z,11.20
2019-05-02T17:47:10.264Z,11.30
2019-05-02T17:49:38.471Z,11.20
2019-05-02T17:52:11.260Z,11.20
2019-05-02T17:54:38.319Z,11.20
2019-05-02T17:57:06.517Z,11.20
2019-05-02T17:59:37.568Z,11.20
2019-05-02T18:02:06.740Z,11.10
2019-05-02T18:04:35.606Z,11.20
2019-05-02T18:07:03.991Z,11.10
2019-05-02T18:09:35.025Z,11.20
2019-05-02T18:12:02.290Z,11.10
2019-05-02T18:14:30.534Z,11.10
2019-05-02T18:16:58.759Z,11.10
2019-05-02T18:19:26.981Z,11.00
2019-05-02T18:21:58.191Z,11.10
2019-05-02T18:24:26.121Z,11.00
2019-05-02T18:26:54.529Z,11.10
2019-05-02T18:29:22.730Z,11.00
2019-05-02T18:31:52.122Z,11.00
2019-05-02T18:34:25.039Z,11.00
2019-05-02T18:36:52.421Z,11.00
2019-05-02T18:39:22.160Z,11.00
2019-05-02T18:41:51.963Z,11.00
2019-05-02T18:44:21.863Z,11.00
2019-05-02T18:46:51.877Z,11.00
2019-05-02T18:49:21.915Z,10.90
2019-05-02T18:51:53.911Z,10.90
2019-05-02T18:54:21.660Z,10.90
2019-05-02T18:56:54.981Z,10.90
2019-05-02T18:59:22.508Z,10.90
2019-05-02T19:01:52.705Z,10.80
2019-05-02T19:04:22.086Z,10.80
2019-05-02T19:06:51.918Z,10.80
2019-05-02T19:09:24.950Z,10.80
2019-05-02T19:11:52.253Z,10.70
2019-05-02T19:14:22.262Z,10.70
2019-05-02T19:16:51.981Z,10.70
2019-05-02T19:19:22.577Z,10.70
2019-05-02T19:21:51.745Z,10.60
2019-05-02T19:24:20.115Z,10.60
2019-05-02T19:26:49.554Z,10.60
2019-05-02T19:29:26.707Z,10.60
2019-05-02T19:31:54.951Z,10.60
2019-05-02T19:34:26.901Z,10.60
2019-05-02T19:36:58.135Z,10.60
2019-05-02T19:39:24.329Z,10.60
2019-05-02T19:41:53.192Z,10.60
2019-05-02T19:44:28.946Z,10.60
2019-05-02T19:46:51.985Z,10.60
2019-05-02T19:49:22.110Z,10.60
2019-05-02T19:51:56.187Z,10.60
2019-05-02T19:54:21.869Z,10.60
2019-05-02T19:56:52.394Z,10.50
2019-05-02T19:59:24.600Z,10.60
2019-05-02T20:01:52.165Z,10.60
2019-05-02T20:04:22.056Z,10.50
2019-05-02T20:06:50.505Z,10.50
2019-05-02T20:09:18.777Z,10.50
2019-05-02T20:11:47.063Z,10.50
2019-05-02T20:14:15.332Z,10.50
2019-05-02T20:16:46.726Z,10.50
2019-05-02T20:19:17.394Z,10.50
2019-05-02T20:21:46.702Z,10.50
2019-05-02T20:24:19.299Z,10.40
2019-05-02T20:26:46.760Z,10.40
2019-05-02T20:29:14.963Z,10.40
2019-05-02T20:31:43.265Z,10.30
2019-05-02T20:34:11.847Z,10.30
2019-05-02T20:36:40.187Z,10.30
2019-05-02T20:39:08.459Z,10.30
2019-05-02T20:41:36.724Z,10.30
2019-05-02T20:44:04.943Z,10.20
2019-05-02T20:46:33.190Z,10.20
2019-05-02T20:49:02.048Z,10.20
2019-05-02T20:51:31.896Z,10.20
2019-05-02T20:54:01.991Z,10.10
2019-05-02T20:56:32.097Z,10.10
2019-05-02T20:59:02.052Z,10.10
2019-05-02T21:01:32.186Z,10.10
2019-05-02T21:04:02.576Z,10.00
2019-05-02T21:06:41.351Z,10.00
2019-05-02T21:09:09.755Z,10.00
2019-05-02T21:11:38.158Z,9.90
2019-05-02T21:14:06.411Z,9.90
2019-05-02T21:16:34.654Z,9.90
2019-05-02T21:19:02.926Z,9.80
2019-05-02T21:21:32.503Z,9.80
2019-05-02T21:24:02.091Z,9.80
2019-05-02T21:26:32.638Z,9.80
2019-05-02T21:29:00.446Z,9.80
2019-05-02T21:31:28.771Z,9.80
2019-05-02T21:33:56.997Z,9.80
2019-05-02T21:36:25.260Z,9.70
2019-05-02T21:38:53.491Z,9.60
2019-05-02T21:41:22.173Z,9.60
2019-05-02T21:43:51.869Z,9.60
2019-05-02T21:46:22.169Z,9.60
2019-05-02T21:48:52.498Z,9.60
2019-05-02T21:51:24.762Z,9.50
2019-05-02T21:53:58.421Z,9.50
2019-05-02T21:56:43.524Z,9.50
2019-05-02T21:59:12.547Z,9.50
2019-05-02T22:01:57.102Z,9.40
2019-05-02T22:04:25.381Z,9.40
2019-05-02T22:06:53.642Z,9.30
2019-05-02T22:09:23.159Z,9.30
2019-05-02T22:11:52.242Z,9.20
2019-05-02T22:14:22.302Z,9.20
2019-05-02T22:16:52.675Z,9.20
2019-05-02T22:19:20.892Z,9.20
2019-05-02T22:21:49.151Z,9.20
2019-05-02T22:24:17.415Z,9.10
2019-05-02T22:26:45.710Z,9.20
2019-05-02T22:29:13.994Z,9.10
2019-05-02T22:31:43.076Z,9.10
2019-05-02T22:34:12.813Z,9.10
2019-05-02T22:36:42.314Z,9.20
2019-05-02T22:39:22.204Z,9.20
2019-05-02T22:41:52.478Z,9.20
2019-05-02T22:44:21.882Z,9.20
2019-05-02T22:46:51.964Z,9.00
2019-05-02T22:49:22.334Z,9.00
2019-05-02T22:51:50.395Z,9.00
2019-05-02T22:54:29.976Z,9.00
2019-05-02T22:56:48.616Z,9.00
2019-05-02T22:59:16.938Z,9.00
2019-05-02T23:01:45.355Z,9.00
2019-05-02T23:04:13.666Z,9.00
2019-05-02T23:06:44.163Z,8.90
2019-05-02T23:09:12.645Z,8.90
2019-05-02T23:11:42.606Z,8.90
2019-05-02T23:14:11.098Z,8.80
2019-05-02T23:16:42.322Z,8.80
2019-05-02T23:19:12.017Z,8.70
2019-05-02T23:21:41.926Z,8.80
2019-05-02T23:24:11.719Z,8.70
2019-05-02T23:26:43.284Z,8.70
2019-05-02T23:29:13.221Z,8.70
2019-05-02T23:31:42.299Z,8.70
2019-05-02T23:34:10.647Z,8.70
2019-05-02T23:36:38.929Z,8.70
2019-05-02T23:39:07.431Z,8.70
2019-05-02T23:41:35.686Z,8.80
2019-05-02T23:44:04.039Z,8.70
2019-05-02T23:46:32.389Z,8.70
2019-05-02T23:49:02.055Z,8.70
2019-05-02T23:51:32.057Z,8.60
2019-05-02T23:54:02.076Z,8.70
2019-05-02T23:56:32.545Z,8.60
2019-05-02T23:59:02.739Z,8.60
